createdAt,value
2022-08-30T00:01:30.359Z,17.60
2022-08-30T00:03:58.407Z,17.60
2022-08-30T00:06:28.996Z,17.50
2022-08-30T00:08:56.401Z,17.50
2022-08-30T00:11:26.257Z,17.50
2022-08-30T00:13:55.226Z,17.50
2022-08-30T00:16:23.876Z,17.50
2022-08-30T00:18:51.245Z,17.40
2022-08-30T00:21:19.282Z,17.40
2022-08-30T00:23:46.099Z,17.40
2022-08-30T00:26:15.045Z,17.40
2022-08-30T00:28:44.426Z,17.40
2022-08-30T00:31:15.202Z,17.40
2022-08-30T00:33:42.675Z,17.40
2022-08-30T00:36:09.621Z,17.40
2022-08-30T00:38:36.415Z,17.30
2022-08-30T00:41:03.340Z,17.30
2022-08-30T00:43:34.231Z,17.30
2022-08-30T00:46:07.723Z,17.30
2022-08-30T00:48:38.899Z,17.30
2022-08-30T00:51:13.003Z,17.30
2022-08-30T00:53:47.057Z,17.30
2022-08-30T00:56:14.430Z,17.30
2022-08-30T00:58:47.021Z,17.30
2022-08-30T01:01:14.334Z,17.30
2022-08-30T01:03:44.797Z,17.30
2022-08-30T01:06:14.975Z,17.30
2022-08-30T01:08:42.800Z,17.30
2022-08-30T01:11:12.303Z,17.30
2022-08-30T01:13:40.720Z,17.30
2022-08-30T01:16:08.382Z,17.20
2022-08-30T01:18:37.151Z,17.20
2022-08-30T01:21:22.412Z,17.30
2022-08-30T01:23:51.708Z,17.20
2022-08-30T01:26:21.821Z,17.20
2022-08-30T01:28:53.310Z,17.20
2022-08-30T01:31:22.674Z,17.20
2022-08-30T01:33:52.477Z,17.20
2022-08-30T01:36:20.395Z,17.20
2022-08-30T01:38:56.872Z,17.20
2022-08-30T01:41:35.508Z,17.20
2022-08-30T01:44:10.662Z,17.20
2022-08-30T01:46:45.871Z,17.20
2022-08-30T01:49:23.134Z,17.20
2022-08-30T01:52:00.511Z,17.20
2022-08-30T01:54:36.618Z,17.20
2022-08-30T01:57:11.953Z,17.20
2022-08-30T01:59:40.506Z,17.20
2022-08-30T02:02:07.959Z,17.20
2022-08-30T02:04:37.329Z,17.20
2022-08-30T02:07:06.438Z,17.20
2022-08-30T02:09:33.507Z,17.20
2022-08-30T02:12:07.835Z,17.20
2022-08-30T02:14:39.460Z,17.20
2022-08-30T02:17:07.308Z,17.20
2022-08-30T02:19:34.189Z,17.20
2022-08-30T02:22:03.468Z,17.20
2022-08-30T02:24:33.472Z,17.20
2022-08-30T02:27:00.467Z,17.20
2022-08-30T02:29:27.597Z,17.20
2022-08-30T02:31:54.544Z,17.20
2022-08-30T02:34:21.725Z,17.20
2022-08-30T02:36:53.408Z,17.20
2022-08-30T02:39:22.398Z,17.20
2022-08-30T02:41:51.393Z,17.20
2022-08-30T02:44:20.441Z,17.20
2022-08-30T02:46:48.169Z,17.20
2022-08-30T02:49:33.554Z,17.10
2022-08-30T02:52:02.112Z,17.10
2022-08-30T02:54:33.238Z,17.10
2022-08-30T02:57:04.800Z,17.10
2022-08-30T02:59:32.091Z,17.10
2022-08-30T03:02:01.106Z,17.10
2022-08-30T03:04:28.018Z,17.10
2022-08-30T03:06:57.033Z,17.10
2022-08-30T03:09:23.881Z,17.10
2022-08-30T03:11:53.075Z,17.10
2022-08-30T03:14:20.944Z,17.10
2022-08-30T03:16:47.732Z,17.10
2022-08-30T03:19:14.556Z,17.10
2022-08-30T03:21:41.352Z,17.10
2022-08-30T03:24:08.560Z,17.10
2022-08-30T03:26:37.807Z,17.10
2022-08-30T03:29:04.704Z,17.00
2022-08-30T03:31:31.595Z,17.10
2022-08-30T03:34:05.484Z,17.10
2022-08-30T03:36:33.261Z,17.10
2022-08-30T03:39:02.456Z,17.10
2022-08-30T03:41:29.198Z,17.00
2022-08-30T03:44:00.217Z,17.00
2022-08-30T03:46:28.746Z,17.00
2022-08-30T03:48:58.994Z,17.00
2022-08-30T03:51:26.326Z,17.00
2022-08-30T03:53:55.372Z,17.00
2022-08-30T03:56:22.131Z,17.00
2022-08-30T03:58:49.192Z,16.90
2022-08-30T04:01:16.074Z,17.00
2022-08-30T04:03:42.941Z,17.00
2022-08-30T04:06:09.834Z,16.90
2022-08-30T04:08:38.834Z,16.90
2022-08-30T04:11:09.748Z,16.90
2022-08-30T04:13:36.564Z,16.90
2022-08-30T04:16:03.765Z,16.90
2022-08-30T04:18:30.616Z,16.90
2022-08-30T04:20:57.412Z,16.90
2022-08-30T04:23:26.364Z,16.90
2022-08-30T04:25:53.191Z,16.90
2022-08-30T04:28:22.472Z,16.90
2022-08-30T04:30:49.406Z,16.90
2022-08-30T04:33:17.324Z,16.80
2022-08-30T04:35:46.773Z,16.80
2022-08-30T04:38:15.003Z,16.80
2022-08-30T04:40:43.637Z,16.80
2022-08-30T04:43:12.982Z,16.80
2022-08-30T04:45:41.212Z,16.80
2022-08-30T04:48:08.815Z,16.80
2022-08-30T04:50:35.570Z,16.70
2022-08-30T04:53:05.442Z,16.70
2022-08-30T04:55:32.620Z,16.70
2022-08-30T04:57:59.462Z,16.70
2022-08-30T05:00:29.697Z,16.60
2022-08-30T05:02:56.508Z,16.70
2022-08-30T05:05:45.650Z,16.70
2022-08-30T05:08:16.168Z,16.70
2022-08-30T05:10:47.441Z,16.70
2022-08-30T05:13:17.704Z,16.70
2022-08-30T05:15:45.025Z,16.70
2022-08-30T05:18:14.049Z,16.70
2022-08-30T05:20:41.811Z,16.60
2022-08-30T05:23:10.906Z,16.70
2022-08-30T05:25:40.036Z,16.70
2022-08-30T05:28:07.010Z,16.70
2022-08-30T05:30:36.756Z,16.70
2022-08-30T05:33:04.129Z,16.70
2022-08-30T05:35:31.097Z,16.70
2022-08-30T05:38:00.100Z,16.70
2022-08-30T05:40:26.983Z,16.70
2022-08-30T05:42:56.061Z,16.70
2022-08-30T05:45:23.121Z,16.70
2022-08-30T05:47:49.963Z,16.80
2022-08-30T05:50:19.001Z,16.80
2022-08-30T05:52:45.780Z,16.80
2022-08-30T05:55:13.463Z,16.80
2022-08-30T05:57:41.369Z,16.80
2022-08-30T06:00:18.228Z,16.90
2022-08-30T06:02:45.237Z,16.90
2022-08-30T06:05:14.267Z,16.90
2022-08-30T06:07:44.131Z,17.00
2022-08-30T06:10:12.442Z,17.00
2022-08-30T06:12:39.517Z,17.00
2022-08-30T06:15:10.201Z,17.00
2022-08-30T06:17:39.580Z,17.00
2022-08-30T06:20:06.988Z,17.10
2022-08-30T06:22:33.790Z,17.20
2022-08-30T06:25:00.835Z,17.20
2022-08-30T06:27:31.229Z,17.30
2022-08-30T06:29:58.226Z,17.30
2022-08-30T06:32:27.403Z,17.40
2022-08-30T06:34:54.277Z,17.40
2022-08-30T06:37:29.353Z,17.50
2022-08-30T06:39:57.818Z,17.60
2022-08-30T06:42:30.618Z,17.60
2022-08-30T06:45:02.060Z,17.70
2022-08-30T06:47:31.867Z,17.70
2022-08-30T06:49:59.332Z,17.80
2022-08-30T06:52:26.171Z,17.80
2022-08-30T06:54:58.953Z,17.90
2022-08-30T06:57:26.668Z,18.00
2022-08-30T06:59:57.579Z,18.00
2022-08-30T07:02:25.018Z,18.00
2022-08-30T07:04:52.312Z,18.10
2022-08-30T07:07:21.515Z,18.20
2022-08-30T07:09:50.463Z,18.20
2022-08-30T07:12:19.568Z,18.30
2022-08-30T07:14:46.745Z,18.40
2022-08-30T07:17:34.666Z,18.40
2022-08-30T07:20:02.621Z,18.50
2022-08-30T07:22:33.502Z,18.60
2022-08-30T07:25:03.080Z,18.60
2022-08-30T07:27:31.620Z,18.70
2022-08-30T07:30:01.068Z,18.80
2022-08-30T07:32:27.883Z,18.80
2022-08-30T07:34:55.835Z,18.90
2022-08-30T07:37:24.774Z,19.00
2022-08-30T07:39:51.768Z,19.10
2022-08-30T07:42:18.756Z,19.10
2022-08-30T07:44:47.797Z,19.20
2022-08-30T07:47:16.701Z,19.30
2022-08-30T07:49:46.062Z,19.30
2022-08-30T07:52:15.216Z,19.40
2022-08-30T07:54:43.034Z,19.60
2022-08-30T07:57:10.077Z,19.60
2022-08-30T07:59:36.935Z,19.70
2022-08-30T08:02:03.968Z,19.70
2022-08-30T08:04:35.581Z,19.80
2022-08-30T08:07:02.772Z,19.80
2022-08-30T08:09:29.766Z,19.80
2022-08-30T08:11:56.912Z,19.90
2022-08-30T08:14:23.963Z,20.00
2022-08-30T08:16:53.491Z,20.10
2022-08-30T08:19:20.876Z,20.10
2022-08-30T08:21:52.781Z,20.20
2022-08-30T08:24:27.544Z,20.20
2022-08-30T08:26:59.048Z,20.30
2022-08-30T08:29:27.147Z,20.30
2022-08-30T08:31:57.211Z,20.40
2022-08-30T08:34:26.609Z,20.40
2022-08-30T08:36:55.856Z,20.40
2022-08-30T08:39:22.637Z,20.40
2022-08-30T08:42:11.366Z,20.50
2022-08-30T08:47:28.823Z,20.70
2022-08-30T08:50:01.324Z,20.80
2022-08-30T08:53:13.322Z,20.90
2022-08-30T08:55:50.640Z,20.90
2022-08-30T08:58:34.199Z,21.00
2022-08-30T09:01:03.819Z,21.10
2022-08-30T09:03:30.683Z,21.20
2022-08-30T09:05:59.760Z,21.20
2022-08-30T09:08:29.116Z,21.30
2022-08-30T09:11:02.579Z,21.30
2022-08-30T09:13:33.963Z,21.40
2022-08-30T09:16:01.333Z,21.50
2022-08-30T09:18:54.442Z,21.50
2022-08-30T09:21:28.924Z,21.60
2022-08-30T09:24:04.831Z,21.60
2022-08-30T09:26:35.478Z,21.70
2022-08-30T09:29:05.804Z,21.70
2022-08-30T09:31:46.027Z,21.80
2022-08-30T09:34:18.619Z,21.90
2022-08-30T09:36:51.439Z,22.10
2022-08-30T09:39:34.582Z,22.10
2022-08-30T09:42:14.430Z,22.20
2022-08-30T09:44:41.349Z,22.20
2022-08-30T09:47:24.258Z,22.20
2022-08-30T09:50:14.097Z,22.30
2022-08-30T09:53:02.844Z,22.30
2022-08-30T09:55:56.873Z,22.40
2022-08-30T09:58:34.307Z,22.40
2022-08-30T10:01:15.302Z,22.40
2022-08-30T10:03:48.714Z,22.40
2022-08-30T10:06:31.252Z,22.50
2022-08-30T10:09:12.922Z,22.50
2022-08-30T10:11:57.226Z,22.50
2022-08-30T10:14:51.428Z,22.60
2022-08-30T10:17:39.162Z,22.70
2022-08-30T10:20:33.900Z,22.70
2022-08-30T10:23:21.083Z,22.80
2022-08-30T10:25:55.114Z,22.80
2022-08-30T10:28:38.860Z,22.90
2022-08-30T10:31:10.994Z,22.90
2022-08-30T10:33:46.389Z,22.90
2022-08-30T10:36:15.381Z,22.90
2022-08-30T10:38:48.379Z,23.00
2022-08-30T10:41:27.684Z,23.10
2022-08-30T10:44:04.315Z,23.20
2022-08-30T10:46:56.699Z,23.20
2022-08-30T10:49:29.113Z,23.30
2022-08-30T10:52:20.501Z,23.40
2022-08-30T10:54:50.505Z,23.50
2022-08-30T10:57:20.507Z,23.60
2022-08-30T11:00:29.144Z,23.60
2022-08-30T11:03:14.275Z,23.60
2022-08-30T11:06:06.158Z,23.70
2022-08-30T11:08:52.247Z,23.70
2022-08-30T11:11:27.933Z,23.70
2022-08-30T11:14:05.485Z,23.70
2022-08-30T11:16:46.709Z,23.80
2022-08-30T11:19:26.383Z,23.80
2022-08-30T11:22:30.087Z,23.80
2022-08-30T11:25:38.802Z,23.90
2022-08-30T11:28:06.383Z,24.00
2022-08-30T11:30:33.191Z,24.10
2022-08-30T11:33:02.060Z,24.10
2022-08-30T11:35:41.928Z,24.10
2022-08-30T11:38:19.442Z,24.20
2022-08-30T11:41:10.968Z,24.30
2022-08-30T11:43:40.520Z,24.30
2022-08-30T11:46:40.328Z,24.40
2022-08-30T11:49:15.735Z,24.50
2022-08-30T11:52:27.632Z,24.50
2022-08-30T11:55:03.716Z,24.50
2022-08-30T11:57:50.292Z,24.60
2022-08-30T12:00:35.771Z,24.60
2022-08-30T12:03:07.604Z,24.60
2022-08-30T12:05:44.370Z,24.60
2022-08-30T12:08:20.336Z,24.60
2022-08-30T12:10:59.982Z,24.70
2022-08-30T12:13:39.925Z,24.80
2022-08-30T12:16:11.639Z,24.80
2022-08-30T12:18:57.145Z,24.90
2022-08-30T12:21:28.748Z,24.90
2022-08-30T12:24:23.523Z,24.80
2022-08-30T12:26:52.329Z,24.70
2022-08-30T12:29:19.235Z,24.60
2022-08-30T12:32:17.498Z,24.60
2022-08-30T12:34:46.599Z,24.60
2022-08-30T12:37:37.715Z,24.50
2022-08-30T12:40:14.356Z,24.40
2022-08-30T12:42:51.414Z,24.40
2022-08-30T12:45:21.748Z,24.40
2022-08-30T12:47:58.272Z,24.60
2022-08-30T12:50:42.798Z,24.70
2022-08-30T12:53:14.153Z,24.80
2022-08-30T12:55:53.854Z,24.90
2022-08-30T12:58:40.920Z,25.00
2022-08-30T13:01:19.398Z,25.10
2022-08-30T13:04:13.338Z,25.30
2022-08-30T13:06:58.129Z,25.30
2022-08-30T13:09:41.052Z,25.40
2022-08-30T13:12:20.903Z,25.40
2022-08-30T13:14:49.551Z,25.30
2022-08-30T13:17:19.146Z,25.30
2022-08-30T13:20:19.521Z,25.20
2022-08-30T13:23:09.709Z,25.20
2022-08-30T13:25:38.297Z,25.20
2022-08-30T13:28:06.998Z,25.20
2022-08-30T13:30:34.272Z,25.20
2022-08-30T13:33:02.292Z,25.30
2022-08-30T13:35:31.295Z,25.30
2022-08-30T13:38:00.246Z,25.30
2022-08-30T13:40:27.884Z,25.20
2022-08-30T13:42:54.648Z,25.20
2022-08-30T13:48:11.367Z,25.30
2022-08-30T13:50:38.966Z,25.30
2022-08-30T13:53:05.830Z,25.40
2022-08-30T13:55:33.915Z,25.50
2022-08-30T13:58:00.678Z,25.50
2022-08-30T14:00:28.237Z,25.40
2022-08-30T14:02:57.517Z,25.40
2022-08-30T14:11:15.713Z,25.40
2022-08-30T14:16:31.665Z,25.30
2022-08-30T14:19:00.335Z,25.10
2022-08-30T14:21:27.198Z,25.00
2022-08-30T14:24:02.039Z,24.90
2022-08-30T14:26:36.282Z,24.80
2022-08-30T14:29:08.951Z,24.60
2022-08-30T14:31:37.105Z,24.60
2022-08-30T14:34:05.650Z,24.60
2022-08-30T14:36:36.614Z,24.50
2022-08-30T14:39:08.617Z,24.40
2022-08-30T14:41:43.421Z,24.30
2022-08-30T14:44:15.206Z,24.20
2022-08-30T14:46:43.104Z,24.10
2022-08-30T14:49:12.198Z,24.10
2022-08-30T14:51:40.240Z,24.00
2022-08-30T14:54:08.018Z,23.90
2022-08-30T14:56:34.873Z,23.90
2022-08-30T14:59:02.952Z,23.90
2022-08-30T15:01:30.603Z,23.80
2022-08-30T15:03:58.985Z,23.80
2022-08-30T15:06:29.494Z,23.80
2022-08-30T15:08:59.561Z,23.90
2022-08-30T15:11:29.688Z,24.00
2022-08-30T15:13:56.559Z,24.00
2022-08-30T15:16:29.334Z,24.10
2022-08-30T15:18:58.238Z,24.20
2022-08-30T15:21:37.645Z,24.20
2022-08-30T15:24:06.907Z,24.30
2022-08-30T15:26:33.880Z,24.20
2022-08-30T15:29:00.761Z,24.20
2022-08-30T15:31:29.118Z,24.30
2022-08-30T15:33:56.661Z,24.20
2022-08-30T15:36:23.989Z,24.20
2022-08-30T15:38:55.386Z,24.20
2022-08-30T15:41:23.071Z,24.20
2022-08-30T15:43:54.350Z,24.20
2022-08-30T15:46:30.041Z,24.10
2022-08-30T15:49:02.386Z,24.00
2022-08-30T15:51:30.887Z,23.90
2022-08-30T15:54:12.030Z,23.80
2022-08-30T15:56:38.918Z,23.70
2022-08-30T15:59:05.747Z,23.70
2022-08-30T16:01:36.928Z,23.70
2022-08-30T16:04:06.714Z,23.70
2022-08-30T16:06:37.365Z,23.70
2022-08-30T16:09:05.740Z,23.80
2022-08-30T16:11:34.174Z,23.80
2022-08-30T16:14:02.058Z,23.90
2022-08-30T16:16:31.142Z,24.00
2022-08-30T16:18:58.392Z,24.10
2022-08-30T16:21:27.805Z,24.10
2022-08-30T16:24:01.018Z,24.20
2022-08-30T16:26:31.445Z,24.20
2022-08-30T16:28:59.221Z,24.20
2022-08-30T16:31:28.740Z,24.20
2022-08-30T16:33:57.368Z,24.10
2022-08-30T16:36:29.097Z,24.10
2022-08-30T16:38:58.260Z,24.10
2022-08-30T16:41:25.436Z,24.10
2022-08-30T16:43:53.709Z,24.00
2022-08-30T16:46:27.359Z,23.90
2022-08-30T16:48:59.414Z,23.80
2022-08-30T16:51:32.237Z,23.70
2022-08-30T16:54:01.612Z,23.60
2022-08-30T16:56:32.920Z,23.60
2022-08-30T16:59:02.686Z,23.50
2022-08-30T17:01:34.638Z,23.40
2022-08-30T17:04:02.442Z,23.40
2022-08-30T17:06:29.326Z,23.40
2022-08-30T17:08:58.974Z,23.40
2022-08-30T17:11:26.621Z,23.40
2022-08-30T17:13:53.943Z,23.40
2022-08-30T17:16:27.542Z,23.40
2022-08-30T17:18:59.600Z,23.40
2022-08-30T17:21:30.975Z,23.40
2022-08-30T17:24:02.447Z,23.30
2022-08-30T17:26:34.751Z,23.30
2022-08-30T17:29:02.588Z,23.30
2022-08-30T17:33:00.180Z,23.30
2022-08-30T17:35:29.961Z,23.20
2022-08-30T17:37:57.223Z,23.20
2022-08-30T17:40:24.097Z,23.10
2022-08-30T17:42:53.568Z,23.10
2022-08-30T17:45:21.189Z,23.00
2022-08-30T17:47:50.709Z,22.90
2022-08-30T17:50:20.545Z,22.90
2022-08-30T17:52:50.186Z,22.80
2022-08-30T17:55:19.637Z,22.70
2022-08-30T17:57:46.373Z,22.70
2022-08-30T18:00:20.025Z,22.60
2022-08-30T18:02:48.309Z,22.60
2022-08-30T18:05:15.959Z,22.40
2022-08-30T18:07:42.976Z,22.40
2022-08-30T18:10:10.272Z,22.30
2022-08-30T18:12:39.298Z,22.20
2022-08-30T18:15:12.483Z,22.20
2022-08-30T18:17:47.610Z,22.10
2022-08-30T18:20:15.430Z,22.00
2022-08-30T18:22:45.144Z,21.90
2022-08-30T18:25:12.142Z,21.80
2022-08-30T18:27:39.385Z,21.80
2022-08-30T18:30:11.531Z,21.70
2022-08-30T18:32:38.575Z,21.60
2022-08-30T18:35:06.359Z,21.50
2022-08-30T18:37:33.328Z,21.40
2022-08-30T18:40:02.933Z,21.30
2022-08-30T18:42:32.297Z,21.30
2022-08-30T18:44:59.366Z,21.20
2022-08-30T18:47:37.397Z,21.10
2022-08-30T18:50:05.925Z,21.10
2022-08-30T18:52:33.485Z,21.00
2022-08-30T18:55:02.713Z,20.90
2022-08-30T18:57:32.389Z,20.90
2022-08-30T18:59:59.704Z,20.80
2022-08-30T19:02:27.583Z,20.80
2022-08-30T19:04:55.405Z,20.70
2022-08-30T19:07:30.872Z,20.60
2022-08-30T19:10:01.726Z,20.50
2022-08-30T19:12:31.576Z,20.50
2022-08-30T19:15:00.875Z,20.40
2022-08-30T19:17:32.153Z,20.30
2022-08-30T19:20:01.803Z,20.30
2022-08-30T19:23:03.417Z,20.30
2022-08-30T19:25:20.832Z,20.20
2022-08-30T19:27:50.761Z,20.10
2022-08-30T19:30:23.114Z,20.10
2022-08-30T19:32:53.049Z,20.10
2022-08-30T19:35:20.429Z,20.00
2022-08-30T19:37:49.784Z,20.00
2022-08-30T19:40:19.076Z,19.90
2022-08-30T19:42:46.765Z,19.90
2022-08-30T19:45:17.777Z,19.90
2022-08-30T19:47:50.314Z,19.80
2022-08-30T19:50:20.376Z,19.80
2022-08-30T19:52:53.708Z,19.70
2022-08-30T19:55:28.173Z,19.70
2022-08-30T19:57:55.255Z,19.60
2022-08-30T20:00:23.491Z,19.60
2022-08-30T20:02:52.948Z,19.60
2022-08-30T20:05:23.943Z,19.50
2022-08-30T20:07:51.404Z,19.50
2022-08-30T20:10:25.841Z,19.40
2022-08-30T20:12:52.903Z,19.40
2022-08-30T20:15:21.992Z,19.40
2022-08-30T20:18:06.392Z,19.40
2022-08-30T20:20:38.829Z,19.30
2022-08-30T20:23:06.007Z,19.30
2022-08-30T20:25:33.295Z,19.30
2022-08-30T20:28:00.420Z,19.20
2022-08-30T20:30:29.792Z,19.20
2022-08-30T20:32:57.280Z,19.20
2022-08-30T20:35:24.610Z,19.10
2022-08-30T20:37:51.432Z,19.10
2022-08-30T20:40:20.634Z,19.10
2022-08-30T20:42:47.900Z,19.10
2022-08-30T20:45:16.929Z,19.10
2022-08-30T20:47:44.257Z,19.00
2022-08-30T20:50:14.200Z,19.00
2022-08-30T20:52:41.751Z,19.00
2022-08-30T20:55:10.441Z,19.00
2022-08-30T20:57:37.483Z,19.00
2022-08-30T21:00:13.793Z,19.00
2022-08-30T21:02:46.468Z,18.90
2022-08-30T21:05:18.259Z,18.90
2022-08-30T21:07:46.088Z,18.90
2022-08-30T21:10:13.892Z,18.90
2022-08-30T21:12:42.886Z,18.80
2022-08-30T21:15:34.173Z,18.80
2022-08-30T21:17:57.113Z,18.80
2022-08-30T21:20:23.883Z,18.80
2022-08-30T21:22:55.881Z,18.70
2022-08-30T21:25:24.928Z,18.80
2022-08-30T21:27:53.880Z,18.80
2022-08-30T21:30:20.834Z,18.80
2022-08-30T21:32:47.829Z,18.70
2022-08-30T21:35:33.154Z,18.70
2022-08-30T21:37:59.916Z,18.70
2022-08-30T21:40:27.287Z,18.70
2022-08-30T21:42:56.467Z,18.60
2022-08-30T21:45:23.427Z,18.60
2022-08-30T21:47:50.151Z,18.60
2022-08-30T21:50:16.965Z,18.50
2022-08-30T21:52:46.300Z,18.50
2022-08-30T21:55:15.702Z,18.50
2022-08-30T21:57:42.477Z,18.50
2022-08-30T22:00:10.297Z,18.50
2022-08-30T22:02:37.094Z,18.50
2022-08-30T22:05:06.299Z,18.50
2022-08-30T22:07:33.077Z,18.40
2022-08-30T22:09:59.818Z,18.40
2022-08-30T22:12:28.735Z,18.40
2022-08-30T22:14:58.556Z,18.40
2022-08-30T22:17:28.449Z,18.30
2022-08-30T22:19:55.301Z,18.40
2022-08-30T22:22:22.261Z,18.30
2022-08-30T22:24:52.144Z,18.30
2022-08-30T22:27:21.065Z,18.30
2022-08-30T22:29:50.751Z,18.30
2022-08-30T22:32:17.821Z,18.30
2022-08-30T22:34:45.779Z,18.30
2022-08-30T22:37:12.556Z,18.20
2022-08-30T22:39:41.861Z,18.20
2022-08-30T22:42:09.885Z,18.20
2022-08-30T22:44:36.929Z,18.20
2022-08-30T22:47:06.348Z,18.20
2022-08-30T22:49:33.109Z,18.20
2022-08-30T22:51:59.875Z,18.20
2022-08-30T22:54:26.717Z,18.20
2022-08-30T22:56:53.498Z,18.20
2022-08-30T22:59:30.345Z,18.20
2022-08-30T23:02:01.487Z,18.10
2022-08-30T23:04:28.592Z,18.10
2022-08-30T23:06:55.377Z,18.10
2022-08-30T23:09:22.843Z,18.10
2022-08-30T23:11:52.144Z,18.10
2022-08-30T23:14:19.023Z,18.10
2022-08-30T23:16:49.145Z,18.10
2022-08-30T23:19:16.895Z,18.10
2022-08-30T23:21:44.040Z,18.00
2022-08-30T23:24:29.405Z,18.10
2022-08-30T23:27:14.995Z,18.00
2022-08-30T23:30:00.375Z,18.00
2022-08-30T23:32:45.804Z,18.00
2022-08-30T23:35:32.165Z,18.00
2022-08-30T23:38:20.893Z,17.90
2022-08-30T23:41:08.920Z,17.90
2022-08-30T23:43:56.468Z,17.90
2022-08-30T23:46:41.952Z,17.90
2022-08-30T23:49:27.525Z,17.80
2022-08-30T23:52:13.017Z,17.80
2022-08-30T23:54:58.567Z,17.80
2022-08-30T23:57:44.948Z,17.80
